Time,TemperatureF,DewpointF,PressureIn,WindDirection,WindDirectionDegrees,WindSpeedMPH,WindSpeedGustMPH,Humidity,HourlyPrecipIn,Conditions,Clouds,dailyrainin,SoftwareType,DateUTC
2013-03-20 00:00:00,35.3,24.7,29.73,NNW,329,3.5,3.5,65,0.00,CLR,CLR,0.75,WeatherDisplay:10.36,2013-03-20 04:00:00,
2013-03-20 00:01:00,35.3,24.7,29.73,West,260,3.5,3.5,65,0.00,CLR,CLR,0.00,WeatherDisplay:10.36,2013-03-20 04:01:00,
2013-03-20 00:06:00,35.2,24.6,29.73,NW,317,1.2,0.0,65,0.00,CLR,CLR,0.00,WeatherDisplay:10.36,2013-03-20 04:06:00,
2013-03-20 00:11:00,35.2,24.6,29.73,NW,311,0.0,0.0,65,0.00,CLR,CLR,0.00,WeatherDisplay:10.36,2013-03-20 04:11:00,
2013-03-20 00:16:00,34.9,24.3,29.73,NW,311,0.0,0.0,65,0.00,CLR,CLR,0.00,WeatherDisplay:10.36,2013-03-20 04:16:00,
2013-03-20 00:22:00,34.7,24.5,29.73,NW,311,0.0,0.0,66,0.00,CLR,CLR,0.00,WeatherDisplay:10.36,2013-03-20 04:22:00,
2013-03-20 00:27:00,34.4,23.8,29.73,NW,311,0.0,0.0,65,0.00,CLR,CLR,0.00,WeatherDisplay:10.36,2013-03-20 04:27:00,
2013-03-20 00:32:00,34.1,23.6,29.73,NW,312,2.3,2.3,65,0.00,CLR,CLR,0.00,WeatherDisplay:10.36,2013-03-20 04:32:00,
2013-03-20 00:37:00,34.1,22.8,29.74,NW,312,2.3,2.3,63,0.00,CLR,CLR,0.00,WeatherDisplay:10.36,2013-03-20 04:37:00,
2013-03-20 00:42:00,34.1,22.0,29.74,WNW,301,0.0,0.0,61,0.00,CLR,CLR,0.00,WeatherDisplay:10.36,2013-03-20 04:42:00,
2013-03-20 00:47:00,34.1,22.0,29.74,WNW,301,1.0,1.0,61,0.00,CLR,CLR,0.00,WeatherDisplay:10.36,2013-03-20 04:47:00,
2013-03-20 00:52:00,34.1,22.0,29.74,WNW,301,0.0,0.0,61,0.00,CLR,CLR,0.00,WeatherDisplay:10.36,2013-03-20 04:52:00,
2013-03-20 00:58:00,34.0,22.0,29.75,WNW,295,0.0,0.0,61,0.00,CLR,CLR,0.00,WeatherDisplay:10.36,2013-03-20 04:58:00,
2013-03-20 01:03:00,34.0,21.6,29.75,West,274,2.3,2.3,60,0.00,CLR,CLR,0.00,WeatherDisplay:10.36,2013-03-20 05:03:00,
2013-03-20 01:08:00,34.0,21.6,29.75,West,273,1.2,0.0,60,0.00,CLR,CLR,0.00,WeatherDisplay:10.36,2013-03-20 05:08:00,
2013-03-20 01:13:00,34.1,21.3,29.75,West,281,2.3,2.3,59,0.00,CLR,CLR,0.00,WeatherDisplay:10.36,2013-03-20 05:13:00,
2013-03-20 01:18:00,34.3,21.4,29.75,WSW,238,3.5,3.5,59,0.00,CLR,CLR,0.00,WeatherDisplay:10.36,2013-03-20 05:18:00,
2013-03-20 01:23:00,34.3,20.6,29.75,WSW,238,0.0,0.0,57,0.00,CLR,CLR,0.00,WeatherDisplay:10.36,2013-03-20 05:23:00,
2013-03-20 01:28:00,34.3,21.0,29.75,WSW,238,0.0,0.0,58,0.00,CLR,CLR,0.00,WeatherDisplay:10.36,2013-03-20 05:28:00,
2013-03-20 01:34:00,34.0,21.2,29.75,WSW,238,0.0,0.0,59,0.00,CLR,CLR,0.00,WeatherDisplay:10.36,2013-03-20 05:34:00,
2013-03-20 01:39:00,33.7,21.3,29.75,WSW,238,1.2,0.0,60,0.00,CLR,CLR,0.00,WeatherDisplay:10.36,2013-03-20 05:39:00,
2013-03-20 01:44:00,33.5,19.5,29.76,West,264,1.2,1.2,56,0.00,CLR,CLR,0.00,WeatherDisplay:10.36,2013-03-20 05:44:00,
2013-03-20 01:49:00,33.5,19.9,29.76,West,264,0.0,0.5,57,0.00,CLR,CLR,0.00,WeatherDisplay:10.36,2013-03-20 05:49:00,
2013-03-20 01:54:00,33.4,18.5,29.76,NW,320,0.0,0.2,54,0.00,CLR,CLR,0.00,WeatherDisplay:10.36,2013-03-20 05:54:00,
2013-03-20 01:59:00,33.4,18.1,29.76,SSW,207,6.9,6.9,53,0.00,CLR,CLR,0.00,WeatherDisplay:10.36,2013-03-20 05:59:00,
2013-03-20 02:05:00,33.4,17.2,29.76,West,281,3.5,3.5,51,0.00,CLR,CLR,0.00,WeatherDisplay:10.36,2013-03-20 06:05:00,
2013-03-20 02:10:00,33.4,16.3,29.76,WSW,250,2.3,2.3,49,0.00,CLR,CLR,0.00,WeatherDisplay:10.36,2013-03-20 06:10:00,
2013-03-20 02:15:00,33.5,16.4,29.76,SW,229,1.2,1.2,49,0.00,CLR,CLR,0.00,WeatherDisplay:10.36,2013-03-20 06:15:00,
2013-03-20 02:20:00,33.4,15.8,29.77,WNW,294,2.3,2.3,48,0.00,CLR,CLR,0.00,WeatherDisplay:10.36,2013-03-20 06:20:00,
2013-03-20 02:25:00,33.2,15.1,29.77,SW,232,6.9,6.9,47,0.00,CLR,CLR,0.00,WeatherDisplay:10.36,2013-03-20 06:25:00,
2013-03-20 02:30:00,33.2,15.1,29.77,West,262,2.3,2.3,47,0.00,CLR,CLR,0.00,WeatherDisplay:10.36,2013-03-20 06:30:00,
2013-03-20 02:35:00,33.1,15.0,29.77,West,267,2.0,5.0,47,0.00,CLR,CLR,0.00,WeatherDisplay:10.36,2013-03-20 06:35:00,
2013-03-20 02:40:00,33.1,15.0,29.77,West,267,0.0,2.0,47,0.00,CLR,CLR,0.00,WeatherDisplay:10.36,2013-03-20 06:40:00,
2013-03-20 02:45:00,32.9,15.3,29.77,SSW,200,3.5,3.5,48,0.00,CLR,CLR,0.00,WeatherDisplay:10.36,2013-03-20 06:45:00,
2013-03-20 02:50:00,32.8,15.2,29.77,SW,221,0.0,0.0,48,0.00,CLR,CLR,0.00,WeatherDisplay:10.36,2013-03-20 06:50:00,
2013-03-20 02:56:00,32.7,15.1,29.77,West,269,2.3,2.3,48,0.00,CLR,CLR,0.00,WeatherDisplay:10.36,2013-03-20 06:56:00,
2013-03-20 03:01:00,32.5,15.4,29.77,SSW,201,2.3,2.3,49,0.00,CLR,CLR,0.00,WeatherDisplay:10.36,2013-03-20 07:01:00,
2013-03-20 03:06:00,32.4,15.3,29.78,SSW,203,2.3,2.3,49,0.00,CLR,CLR,0.00,WeatherDisplay:10.36,2013-03-20 07:06:00,
2013-03-20 03:11:00,32.4,14.9,29.77,SSE,153,3.5,3.5,48,0.00,CLR,CLR,0.00,WeatherDisplay:10.36,2013-03-20 07:11:00,
2013-03-20 03:16:00,32.2,14.7,29.77,SW,229,3.5,3.5,48,0.00,CLR,CLR,0.00,WeatherDisplay:10.36,2013-03-20 07:16:00,
2013-03-20 03:21:00,32.1,15.5,29.78,WSW,243,4.0,4.0,50,0.00,CLR,CLR,0.00,WeatherDisplay:10.36,2013-03-20 07:21:00,
2013-03-20 03:26:00,31.9,15.3,29.77,West,272,0.0,0.0,50,0.00,CLR,CLR,0.00,WeatherDisplay:10.36,2013-03-20 07:26:00,
2013-03-20 03:31:00,31.6,15.5,29.77,West,272,1.0,1.0,51,0.00,CLR,CLR,0.00,WeatherDisplay:10.36,2013-03-20 07:31:00,
2013-03-20 03:36:00,31.5,15.4,29.77,WSW,248,3.5,3.5,51,0.00,CLR,CLR,0.00,WeatherDisplay:10.36,2013-03-20 07:36:00,
2013-03-20 03:41:00,31.3,16.1,29.77,WSW,247,2.3,2.3,53,0.00,CLR,CLR,0.00,WeatherDisplay:10.36,2013-03-20 07:41:00,
2013-03-20 03:47:00,31.3,16.6,29.77,SW,234,2.0,2.0,54,0.00,CLR,CLR,0.00,WeatherDisplay:10.36,2013-03-20 07:47:00,
2013-03-20 03:52:00,31.2,16.9,29.77,SW,236,3.0,3.0,55,0.00,CLR,CLR,0.00,WeatherDisplay:10.36,2013-03-20 07:52:00,
2013-03-20 03:57:00,31.0,17.1,29.78,WSW,240,4.0,4.0,56,0.00,CLR,CLR,0.00,WeatherDisplay:10.36,2013-03-20 07:57:00,
2013-03-20 04:02:00,31.2,17.3,29.78,SW,231,5.8,5.8,56,0.00,CLR,CLR,0.00,WeatherDisplay:10.36,2013-03-20 08:02:00,
2013-03-20 04:07:00,31.3,17.0,29.78,WSW,238,3.5,3.5,55,0.00,CLR,CLR,0.00,WeatherDisplay:10.36,2013-03-20 08:07:00,
2013-03-20 04:12:00,31.3,17.0,29.77,SW,236,5.8,5.8,55,0.00,CLR,CLR,0.00,WeatherDisplay:10.36,2013-03-20 08:12:00,
2013-03-20 04:18:00,31.3,16.6,29.77,WSW,237,6.9,6.9,54,0.00,CLR,CLR,0.00,WeatherDisplay:10.36,2013-03-20 08:18:00,
2013-03-20 04:23:00,31.5,16.7,29.77,SW,221,3.5,3.5,54,0.00,CLR,CLR,0.00,WeatherDisplay:10.36,2013-03-20 08:23:00,
2013-03-20 04:28:00,31.3,16.6,29.77,SW,219,3.5,3.5,54,0.00,CLR,CLR,0.00,WeatherDisplay:10.36,2013-03-20 08:28:00,
2013-03-20 04:33:00,31.3,16.6,29.78,WNW,282,3.5,3.5,54,0.00,CLR,CLR,0.00,WeatherDisplay:10.36,2013-03-20 08:33:00,
2013-03-20 04:38:00,31.3,16.6,29.78,SE,138,5.0,5.0,54,0.00,CLR,CLR,0.00,WeatherDisplay:10.36,2013-03-20 08:38:00,
2013-03-20 04:44:00,31.3,16.6,29.78,SSW,204,8.1,8.1,54,0.00,CLR,CLR,0.00,WeatherDisplay:10.36,2013-03-20 08:44:00,
2013-03-20 04:49:00,31.2,16.5,29.78,SW,224,6.9,6.9,54,0.00,CLR,CLR,0.00,WeatherDisplay:10.36,2013-03-20 08:49:00,
2013-03-20 04:54:00,31.2,16.9,29.78,WSW,245,5.8,5.8,55,0.00,CLR,CLR,0.00,WeatherDisplay:10.36,2013-03-20 08:54:00,
2013-03-20 04:59:00,31.0,17.1,29.78,SW,224,5.8,5.8,56,0.00,CLR,CLR,0.00,WeatherDisplay:10.36,2013-03-20 08:59:00,
2013-03-20 05:04:00,31.0,17.1,29.78,SW,220,4.0,4.0,56,0.01,RA,RA,0.01,WeatherDisplay:10.36,2013-03-20 09:04:00,
2013-03-20 05:09:00,30.9,17.4,29.79,WSW,237,5.0,5.0,57,0.01,RA,RA,0.01,WeatherDisplay:10.36,2013-03-20 09:09:00,
2013-03-20 05:14:00,30.9,17.0,29.79,SW,218,10.4,10.4,56,0.01,CLR,CLR,0.01,WeatherDisplay:10.36,2013-03-20 09:14:00,
2013-03-20 05:19:00,30.9,17.4,29.78,SW,230,1.2,1.2,57,0.01,CLR,CLR,0.01,WeatherDisplay:10.36,2013-03-20 09:19:00,
2013-03-20 05:24:00,30.7,17.3,29.79,SW,228,5.8,5.8,57,0.01,CLR,CLR,0.01,WeatherDisplay:10.36,2013-03-20 09:24:00,
2013-03-20 05:29:00,30.6,17.2,29.78,WSW,250,2.3,2.3,57,0.01,CLR,CLR,0.01,WeatherDisplay:10.36,2013-03-20 09:29:00,
2013-03-20 05:34:00,30.4,17.4,29.78,SW,236,3.5,3.5,58,0.01,CLR,CLR,0.01,WeatherDisplay:10.36,2013-03-20 09:34:00,
2013-03-20 05:39:00,30.3,17.3,29.79,WSW,237,3.5,3.5,58,0.01,CLR,CLR,0.01,WeatherDisplay:10.36,2013-03-20 09:39:00,
2013-03-20 05:44:00,30.3,17.3,29.79,SW,232,3.5,3.5,58,0.01,CLR,CLR,0.01,WeatherDisplay:10.36,2013-03-20 09:44:00,
2013-03-20 05:49:00,30.1,17.5,29.79,SW,228,2.0,2.0,59,0.01,CLR,CLR,0.01,WeatherDisplay:10.36,2013-03-20 09:49:00,
2013-03-20 05:54:00,30.1,17.5,29.79,SW,224,3.5,3.5,59,0.01,CLR,CLR,0.01,WeatherDisplay:10.36,2013-03-20 09:54:00,
2013-03-20 05:59:00,30.0,17.4,29.79,SW,229,1.0,1.0,59,0.01,CLR,CLR,0.01,WeatherDisplay:10.36,2013-03-20 09:59:00,
2013-03-20 06:05:00,30.0,17.4,29.79,WSW,242,3.5,3.5,59,0.00,CLR,CLR,0.01,WeatherDisplay:10.36,2013-03-20 10:05:00,
2013-03-20 06:10:00,30.0,17.4,29.79,SW,236,1.0,3.0,59,0.00,CLR,CLR,0.01,WeatherDisplay:10.36,2013-03-20 10:10:00,
2013-03-20 06:15:00,30.1,17.5,29.79,SW,231,0.0,0.0,59,0.00,CLR,CLR,0.01,WeatherDisplay:10.36,2013-03-20 10:15:00,
2013-03-20 06:21:00,30.1,17.5,29.79,SW,231,0.0,0.0,59,0.00,CLR,CLR,0.01,WeatherDisplay:10.36,2013-03-20 10:21:00,
2013-03-20 06:26:00,30.1,17.5,29.79,SW,235,3.0,3.0,59,0.00,CLR,CLR,0.01,WeatherDisplay:10.36,2013-03-20 10:26:00,
2013-03-20 06:31:00,30.1,17.5,29.79,WSW,243,3.5,3.5,59,0.00,CLR,CLR,0.01,WeatherDisplay:10.36,2013-03-20 10:31:00,
2013-03-20 06:36:00,30.1,17.1,29.79,WSW,243,1.2,1.2,58,0.00,CLR,CLR,0.01,WeatherDisplay:10.36,2013-03-20 10:36:00,
2013-03-20 06:41:00,30.0,17.4,29.79,WSW,243,0.0,0.0,59,0.00,CLR,CLR,0.01,WeatherDisplay:10.36,2013-03-20 10:41:00,
2013-03-20 06:46:00,30.0,17.4,29.79,WSW,243,0.0,0.0,59,0.00,CLR,CLR,0.01,WeatherDisplay:10.36,2013-03-20 10:46:00,
2013-03-20 06:51:00,29.8,17.6,29.79,WSW,243,0.0,0.0,60,0.00,CLR,CLR,0.01,WeatherDisplay:10.36,2013-03-20 10:51:00,
2013-03-20 06:57:00,29.7,17.5,29.79,WSW,243,0.0,0.0,60,0.00,CLR,CLR,0.01,WeatherDisplay:10.36,2013-03-20 10:57:00,
2013-03-20 07:02:00,29.7,17.5,29.79,WSW,243,0.0,0.0,60,0.00,CLR,CLR,0.01,WeatherDisplay:10.36,2013-03-20 11:02:00,
2013-03-20 07:07:00,29.7,17.5,29.79,WSW,243,2.3,2.3,60,0.00,CLR,CLR,0.01,WeatherDisplay:10.36,2013-03-20 11:07:00,
2013-03-20 07:12:00,29.8,17.6,29.80,WSW,243,1.0,0.0,60,0.00,CLR,CLR,0.01,WeatherDisplay:10.36,2013-03-20 11:12:00,
2013-03-20 07:17:00,29.8,17.2,29.80,WSW,243,2.0,2.0,59,0.00,CLR,CLR,0.01,WeatherDisplay:10.36,2013-03-20 11:17:00,
2013-03-20 07:22:00,30.0,17.4,29.80,SSW,198,3.5,3.5,59,0.00,CLR,CLR,0.01,WeatherDisplay:10.36,2013-03-20 11:22:00,
2013-03-20 07:27:00,30.1,17.5,29.80,SSW,209,3.5,3.5,59,0.00,CLR,CLR,0.01,WeatherDisplay:10.36,2013-03-20 11:27:00,
2013-03-20 07:32:00,30.3,17.7,29.80,SW,217,3.5,3.5,59,0.00,CLR,CLR,0.01,WeatherDisplay:10.36,2013-03-20 11:32:00,
2013-03-20 07:37:00,30.4,17.8,29.80,SW,221,2.0,2.0,59,0.00,CLR,CLR,0.01,WeatherDisplay:10.36,2013-03-20 11:37:00,
2013-03-20 07:42:00,30.9,17.8,29.80,SW,233,4.0,4.0,58,0.00,CLR,CLR,0.01,WeatherDisplay:10.36,2013-03-20 11:42:00,
2013-03-20 07:47:00,31.2,17.7,29.80,WSW,249,3.5,3.5,57,0.00,CLR,CLR,0.01,WeatherDisplay:10.36,2013-03-20 11:47:00,
2013-03-20 07:52:00,31.5,18.0,29.80,SSW,197,9.0,9.0,57,0.00,CLR,CLR,0.01,WeatherDisplay:10.36,2013-03-20 11:52:00,
2013-03-20 07:57:00,31.9,18.0,29.80,SSW,212,3.5,3.5,56,0.00,CLR,CLR,0.01,WeatherDisplay:10.36,2013-03-20 11:57:00,
2013-03-20 08:02:00,32.1,17.7,29.80,SW,227,6.9,6.9,55,0.00,CLR,CLR,0.01,WeatherDisplay:10.36,2013-03-20 12:02:00,
2013-03-20 08:07:00,32.4,18.0,29.79,WSW,238,6.9,6.9,55,0.00,CLR,CLR,0.01,WeatherDisplay:10.36,2013-03-20 12:07:00,
2013-03-20 08:12:00,32.5,17.7,29.79,SW,226,9.2,9.2,54,0.00,CLR,CLR,0.01,WeatherDisplay:10.36,2013-03-20 12:12:00,
2013-03-20 08:17:00,32.7,17.9,29.79,WSW,254,6.9,6.9,54,0.00,CLR,CLR,0.01,WeatherDisplay:10.36,2013-03-20 12:17:00,
2013-03-20 08:23:00,32.8,17.1,29.79,West,268,7.0,7.0,52,0.00,CLR,CLR,0.01,WeatherDisplay:10.36,2013-03-20 12:23:00,
2013-03-20 08:28:00,32.8,17.1,29.79,SW,228,5.8,5.8,52,0.00,CLR,CLR,0.01,WeatherDisplay:10.36,2013-03-20 12:28:00,
2013-03-20 08:33:00,32.9,16.7,29.79,SW,226,3.5,3.5,51,0.00,CLR,CLR,0.01,WeatherDisplay:10.36,2013-03-20 12:33:00,
2013-03-20 08:38:00,33.1,16.5,29.79,West,278,4.6,4.6,50,0.00,CLR,CLR,0.01,WeatherDisplay:10.36,2013-03-20 12:38:00,
2013-03-20 08:43:00,33.2,16.5,29.79,NW,326,6.9,6.9,50,0.00,CLR,CLR,0.01,WeatherDisplay:10.36,2013-03-20 12:43:00,
2013-03-20 08:48:00,33.4,16.7,29.79,WSW,238,10.4,10.4,50,0.00,CLR,CLR,0.01,WeatherDisplay:10.36,2013-03-20 12:48:00,
2013-03-20 08:53:00,33.5,16.8,29.79,SW,227,9.2,9.2,50,0.00,CLR,CLR,0.01,WeatherDisplay:10.36,2013-03-20 12:53:00,
2013-03-20 08:58:00,33.5,16.8,29.79,SSW,200,11.0,11.0,50,0.00,CLR,CLR,0.01,WeatherDisplay:10.36,2013-03-20 12:58:00,
2013-03-20 09:03:00,33.7,16.1,29.79,WSW,257,4.6,4.6,48,0.00,CLR,CLR,0.01,WeatherDisplay:10.36,2013-03-20 13:03:00,
2013-03-20 09:08:00,33.8,16.2,29.78,WSW,239,4.0,4.0,48,0.00,CLR,CLR,0.01,WeatherDisplay:10.36,2013-03-20 13:08:00,
2013-03-20 09:13:00,34.0,16.3,29.79,WSW,250,6.9,6.9,48,0.00,CLR,CLR,0.01,WeatherDisplay:10.36,2013-03-20 13:13:00,
2013-03-20 09:19:00,34.1,15.9,29.79,WNW,289,4.6,4.6,47,0.00,CLR,CLR,0.01,WeatherDisplay:10.36,2013-03-20 13:19:00,
2013-03-20 09:24:00,34.3,16.6,29.79,South,181,4.0,4.0,48,0.00,CLR,CLR,0.01,WeatherDisplay:10.36,2013-03-20 13:24:00,
2013-03-20 09:29:00,34.4,15.7,29.78,SW,229,17.3,17.3,46,0.00,CLR,CLR,0.01,WeatherDisplay:10.36,2013-03-20 13:29:00,
2013-03-20 09:34:00,34.6,15.9,29.78,WSW,257,3.5,3.5,46,0.00,CLR,CLR,0.01,WeatherDisplay:10.36,2013-03-20 13:34:00,
2013-03-20 09:39:00,34.7,15.5,29.78,SW,224,16.1,16.1,45,0.00,CLR,CLR,0.01,WeatherDisplay:10.36,2013-03-20 13:39:00,
2013-03-20 09:44:00,34.7,15.5,29.79,SW,232,9.2,9.2,45,0.00,CLR,CLR,0.01,WeatherDisplay:10.36,2013-03-20 13:44:00,
2013-03-20 09:50:00,34.7,15.5,29.79,WSW,245,17.3,17.3,45,0.00,CLR,CLR,0.01,WeatherDisplay:10.36,2013-03-20 13:50:00,
2013-03-20 09:55:00,34.9,15.7,29.79,SW,219,5.8,5.8,45,0.00,CLR,CLR,0.01,WeatherDisplay:10.36,2013-03-20 13:55:00,
2013-03-20 10:00:00,35.0,15.3,29.79,SW,236,2.0,12.0,44,0.00,CLR,CLR,0.01,WeatherDisplay:10.36,2013-03-20 14:00:00,
2013-03-20 10:05:00,35.0,15.8,29.79,WSW,242,1.0,6.0,45,0.00,CLR,CLR,0.01,WeatherDisplay:10.36,2013-03-20 14:05:00,
2013-03-20 10:10:00,35.2,15.4,29.79,West,260,9.2,9.2,44,0.00,CLR,CLR,0.01,WeatherDisplay:10.36,2013-03-20 14:10:00,
2013-03-20 10:15:00,35.0,15.3,29.79,East,88,12.7,12.7,44,0.00,CLR,CLR,0.01,WeatherDisplay:10.36,2013-03-20 14:15:00,
2013-03-20 10:20:00,35.0,15.8,29.79,West,262,5.0,5.0,45,0.00,CLR,CLR,0.01,WeatherDisplay:10.36,2013-03-20 14:20:00,
2013-03-20 10:26:00,35.3,16.0,29.80,SW,219,3.5,3.5,45,0.00,CLR,CLR,0.01,WeatherDisplay:10.36,2013-03-20 14:26:00,
2013-03-20 10:31:00,35.2,16.0,29.79,WSW,239,6.9,6.9,45,0.00,CLR,CLR,0.01,WeatherDisplay:10.36,2013-03-20 14:31:00,
2013-03-20 10:36:00,34.9,15.7,29.80,WSW,252,7.0,7.0,45,0.00,CLR,CLR,0.01,WeatherDisplay:10.36,2013-03-20 14:36:00,
2013-03-20 10:41:00,34.9,16.7,29.79,West,273,7.0,7.0,47,0.00,CLR,CLR,0.01,WeatherDisplay:10.36,2013-03-20 14:41:00,
2013-03-20 10:46:00,35.5,17.7,29.80,SW,231,12.0,12.0,48,0.00,CLR,CLR,0.01,WeatherDisplay:10.36,2013-03-20 14:46:00,
2013-03-20 10:51:00,35.9,16.6,29.80,WSW,250,11.5,11.5,45,0.00,CLR,CLR,0.01,WeatherDisplay:10.36,2013-03-20 14:51:00,
2013-03-20 10:57:00,35.8,17.0,29.80,SSE,150,14.0,14.0,46,0.00,CLR,CLR,0.01,WeatherDisplay:10.36,2013-03-20 14:57:00,
2013-03-20 11:02:00,35.8,17.0,29.79,South,186,5.8,5.8,46,0.00,CLR,CLR,0.01,WeatherDisplay:10.36,2013-03-20 15:02:00,
2013-03-20 11:07:00,35.8,16.5,29.79,WNW,297,10.4,10.4,45,0.00,CLR,CLR,0.01,WeatherDisplay:10.36,2013-03-20 15:07:00,
2013-03-20 11:12:00,36.2,17.4,29.79,SSW,209,3.5,3.5,46,0.00,CLR,CLR,0.01,WeatherDisplay:10.36,2013-03-20 15:12:00,
2013-03-20 11:17:00,36.5,17.7,29.80,WNW,296,11.5,11.5,46,0.00,CLR,CLR,0.01,WeatherDisplay:10.36,2013-03-20 15:17:00,
2013-03-20 11:22:00,36.9,18.0,29.80,SW,215,10.0,10.0,46,0.00,CLR,CLR,0.01,WeatherDisplay:10.36,2013-03-20 15:22:00,
2013-03-20 11:27:00,36.5,16.6,29.80,WSW,239,12.7,12.7,44,0.00,CLR,CLR,0.01,WeatherDisplay:10.36,2013-03-20 15:27:00,
2013-03-20 11:32:00,36.2,16.4,29.79,West,263,3.5,3.5,44,0.00,CLR,CLR,0.01,WeatherDisplay:10.36,2013-03-20 15:32:00,
2013-03-20 11:37:00,36.0,15.6,29.79,WNW,295,6.9,6.9,43,0.00,CLR,CLR,0.01,WeatherDisplay:10.36,2013-03-20 15:37:00,
2013-03-20 11:42:00,36.2,15.8,29.79,West,275,5.0,5.0,43,0.00,CLR,CLR,0.01,WeatherDisplay:10.36,2013-03-20 15:42:00,
2013-03-20 11:48:00,36.2,15.8,29.79,WNW,293,5.8,5.8,43,0.00,CLR,CLR,0.01,WeatherDisplay:10.36,2013-03-20 15:48:00,
2013-03-20 11:53:00,36.5,16.6,29.79,WNW,292,4.6,4.6,44,0.00,CLR,CLR,0.01,WeatherDisplay:10.36,2013-03-20 15:53:00,
2013-03-20 11:58:00,36.8,17.4,29.78,West,269,11.5,11.5,45,0.00,CLR,CLR,0.01,WeatherDisplay:10.36,2013-03-20 15:58:00,
2013-03-20 12:04:00,37.2,16.2,29.78,WSW,244,11.5,11.5,42,0.00,CLR,CLR,0.01,WeatherDisplay:10.36,2013-03-20 16:04:00,
2013-03-20 12:09:00,37.6,17.1,29.78,WSW,240,4.6,4.6,43,0.00,CLR,CLR,0.01,WeatherDisplay:10.36,2013-03-20 16:09:00,
2013-03-20 12:14:00,38.0,16.4,29.78,WSW,252,3.5,3.5,41,0.00,CLR,CLR,0.01,WeatherDisplay:10.36,2013-03-20 16:14:00,
2013-03-20 12:19:00,38.0,17.5,29.77,WSW,240,3.5,3.5,43,0.00,CLR,CLR,0.01,WeatherDisplay:10.36,2013-03-20 16:19:00,
2013-03-20 12:24:00,38.6,17.5,29.77,NW,309,5.8,5.8,42,0.00,CLR,CLR,0.01,WeatherDisplay:10.36,2013-03-20 16:24:00,
2013-03-20 12:29:00,38.9,16.6,29.77,WSW,240,5.0,5.0,40,0.00,CLR,CLR,0.01,WeatherDisplay:10.36,2013-03-20 16:29:00,
2013-03-20 12:34:00,39.5,17.1,29.77,WNW,290,9.2,9.2,40,0.00,CLR,CLR,0.01,WeatherDisplay:10.36,2013-03-20 16:34:00,
2013-03-20 12:39:00,39.6,16.0,29.77,NW,321,5.8,5.8,38,0.00,CLR,CLR,0.01,WeatherDisplay:10.36,2013-03-20 16:39:00,
2013-03-20 12:45:00,39.8,16.8,29.77,NW,311,2.3,3.0,39,0.00,CLR,CLR,0.01,WeatherDisplay:10.36,2013-03-20 16:45:00,
2013-03-20 12:50:00,40.2,16.0,29.77,West,272,1.0,6.0,37,0.00,CLR,CLR,0.01,WeatherDisplay:10.36,2013-03-20 16:50:00,
2013-03-20 12:55:00,40.1,17.1,29.77,WSW,253,1.0,10.0,39,0.00,CLR,CLR,0.01,WeatherDisplay:10.36,2013-03-20 16:55:00,
2013-03-20 13:00:00,40.3,16.1,29.77,SW,233,2.0,3.0,37,0.00,CLR,CLR,0.01,WeatherDisplay:10.36,2013-03-20 17:00:00,
2013-03-20 13:05:00,40.3,17.3,29.77,West,261,3.0,9.0,39,0.00,CLR,CLR,0.01,WeatherDisplay:10.36,2013-03-20 17:05:00,
2013-03-20 13:10:00,40.8,17.1,29.76,WSW,252,7.0,7.0,38,0.00,CLR,CLR,0.01,WeatherDisplay:10.36,2013-03-20 17:10:00,
2013-03-20 13:15:00,40.6,16.9,29.76,NW,316,3.5,3.5,38,0.01,RA,RA,0.02,WeatherDisplay:10.36,2013-03-20 17:15:00,
2013-03-20 13:20:00,40.9,16.6,29.76,SSW,206,6.9,6.9,37,0.01,RA,RA,0.02,WeatherDisplay:10.36,2013-03-20 17:20:00,
2013-03-20 13:25:00,40.8,16.5,29.76,SSE,167,11.5,11.5,37,0.01,CLR,CLR,0.02,WeatherDisplay:10.36,2013-03-20 17:25:00,
2013-03-20 13:31:00,40.8,16.5,29.75,WNW,282,3.5,3.5,37,0.01,CLR,CLR,0.02,WeatherDisplay:10.36,2013-03-20 17:31:00,
2013-03-20 13:36:00,40.8,15.9,29.75,SW,231,4.6,4.6,36,0.01,CLR,CLR,0.02,WeatherDisplay:10.36,2013-03-20 17:36:00,
2013-03-20 13:41:00,41.2,16.2,29.75,WSW,250,6.0,6.0,36,0.01,CLR,CLR,0.02,WeatherDisplay:10.36,2013-03-20 17:41:00,
2013-03-20 13:46:00,41.8,16.1,29.74,West,268,3.5,3.5,35,0.01,CLR,CLR,0.02,WeatherDisplay:10.36,2013-03-20 17:46:00,
2013-03-20 13:51:00,41.8,16.1,29.74,West,278,4.6,4.6,35,0.01,CLR,CLR,0.02,WeatherDisplay:10.36,2013-03-20 17:51:00,
2013-03-20 13:56:00,41.6,15.3,29.74,SW,223,6.9,6.9,34,0.01,CLR,CLR,0.02,WeatherDisplay:10.36,2013-03-20 17:56:00,
2013-03-20 14:02:00,40.9,15.3,29.74,SSW,201,6.9,6.9,35,0.01,CLR,CLR,0.02,WeatherDisplay:10.36,2013-03-20 18:02:00,
2013-03-20 14:07:00,40.6,15.0,29.74,WSW,257,3.5,4.8,35,0.01,CLR,CLR,0.02,WeatherDisplay:10.36,2013-03-20 18:07:00,
2013-03-20 14:12:00,40.9,16.0,29.74,South,185,4.6,4.6,36,0.01,CLR,CLR,0.02,WeatherDisplay:10.36,2013-03-20 18:12:00,
2013-03-20 14:17:00,41.3,16.3,29.73,SSW,211,3.5,3.5,36,0.00,CLR,CLR,0.02,WeatherDisplay:10.36,2013-03-20 18:17:00,
2013-03-20 14:22:00,41.6,16.6,29.73,SW,222,9.2,9.2,36,0.00,CLR,CLR,0.02,WeatherDisplay:10.36,2013-03-20 18:22:00,
2013-03-20 14:27:00,42.3,17.2,29.73,SW,217,11.5,11.5,36,0.00,CLR,CLR,0.02,WeatherDisplay:10.36,2013-03-20 18:27:00,
2013-03-20 14:32:00,42.5,16.1,29.72,SSW,207,5.0,5.0,34,0.00,CLR,CLR,0.02,WeatherDisplay:10.36,2013-03-20 18:32:00,
2013-03-20 14:37:00,42.8,15.6,29.72,SW,220,15.0,15.0,33,0.00,CLR,CLR,0.02,WeatherDisplay:10.36,2013-03-20 18:37:00,
2013-03-20 14:42:00,42.5,16.1,29.72,WSW,253,10.4,10.4,34,0.00,CLR,CLR,0.02,WeatherDisplay:10.36,2013-03-20 18:42:00,
2013-03-20 14:47:00,43.2,16.7,29.72,West,275,11.5,11.5,34,0.00,CLR,CLR,0.02,WeatherDisplay:10.36,2013-03-20 18:47:00,
2013-03-20 14:53:00,43.6,19.0,29.72,West,275,3.5,3.5,37,0.00,CLR,CLR,0.02,WeatherDisplay:10.36,2013-03-20 18:53:00,
2013-03-20 14:58:00,43.8,17.9,29.72,SW,221,3.5,3.5,35,0.00,CLR,CLR,0.02,WeatherDisplay:10.36,2013-03-20 18:58:00,
2013-03-20 15:03:00,43.5,18.3,29.72,SSE,167,5.8,5.8,36,0.00,CLR,CLR,0.02,WeatherDisplay:10.36,2013-03-20 19:03:00,
2013-03-20 15:08:00,43.3,14.6,29.72,NW,320,6.0,6.0,31,0.00,CLR,CLR,0.02,WeatherDisplay:10.36,2013-03-20 19:08:00,
2013-03-20 15:13:00,42.8,15.6,29.72,SSW,196,17.3,17.3,33,0.00,CLR,CLR,0.02,WeatherDisplay:10.36,2013-03-20 19:13:00,
2013-03-20 15:18:00,42.9,15.7,29.72,WSW,257,13.8,13.8,33,0.00,CLR,CLR,0.02,WeatherDisplay:10.36,2013-03-20 19:18:00,
2013-03-20 15:23:00,42.8,14.9,29.72,West,269,10.4,10.4,32,0.00,CLR,CLR,0.02,WeatherDisplay:10.36,2013-03-20 19:23:00,
2013-03-20 15:28:00,42.8,16.3,29.71,WSW,243,4.6,4.6,34,0.00,CLR,CLR,0.02,WeatherDisplay:10.36,2013-03-20 19:28:00,
2013-03-20 15:33:00,42.6,14.8,29.71,SSW,200,10.4,10.4,32,0.00,CLR,CLR,0.02,WeatherDisplay:10.36,2013-03-20 19:33:00,
2013-03-20 15:38:00,42.3,14.5,29.71,West,270,12.7,12.7,32,0.00,CLR,CLR,0.02,WeatherDisplay:10.36,2013-03-20 19:38:00,
2013-03-20 15:43:00,42.8,14.9,29.71,WSW,252,11.5,11.5,32,0.00,CLR,CLR,0.02,WeatherDisplay:10.36,2013-03-20 19:43:00,
2013-03-20 15:48:00,43.3,15.4,29.71,SSE,166,11.5,11.5,32,0.00,CLR,CLR,0.02,WeatherDisplay:10.36,2013-03-20 19:48:00,
2013-03-20 15:53:00,43.6,13.4,29.71,West,266,11.5,11.5,29,0.00,CLR,CLR,0.02,WeatherDisplay:10.36,2013-03-20 19:53:00,
2013-03-20 15:58:00,43.3,13.1,29.71,WSW,244,11.5,11.5,29,0.00,CLR,CLR,0.02,WeatherDisplay:10.36,2013-03-20 19:58:00,
2013-03-20 16:03:00,43.5,13.3,29.71,West,259,11.0,11.0,29,0.00,CLR,CLR,0.02,WeatherDisplay:10.36,2013-03-20 20:03:00,
2013-03-20 16:08:00,43.6,14.2,29.71,SSW,192,6.0,6.0,30,0.00,CLR,CLR,0.02,WeatherDisplay:10.36,2013-03-20 20:08:00,
2013-03-20 16:14:00,43.6,14.9,29.71,SSW,195,10.4,10.4,31,0.00,CLR,CLR,0.02,WeatherDisplay:10.36,2013-03-20 20:14:00,
2013-03-20 16:19:00,43.5,16.9,29.71,SW,234,8.1,8.1,34,0.00,CLR,CLR,0.02,WeatherDisplay:10.36,2013-03-20 20:19:00,
2013-03-20 16:24:00,44.1,16.1,29.71,SSW,205,8.1,8.1,32,0.00,CLR,CLR,0.02,WeatherDisplay:10.36,2013-03-20 20:24:00,
2013-03-20 16:29:00,43.9,15.9,29.71,NW,304,7.0,7.0,32,0.00,CLR,CLR,0.02,WeatherDisplay:10.36,2013-03-20 20:29:00,
2013-03-20 16:34:00,43.2,16.0,29.71,West,262,11.5,11.5,33,0.00,CLR,CLR,0.02,WeatherDisplay:10.36,2013-03-20 20:34:00,
2013-03-20 16:39:00,42.5,16.1,29.71,SW,236,6.9,6.9,34,0.00,CLR,CLR,0.02,WeatherDisplay:10.36,2013-03-20 20:39:00,
2013-03-20 16:44:00,42.2,14.4,29.71,SE,146,11.5,11.5,32,0.00,CLR,CLR,0.02,WeatherDisplay:10.36,2013-03-20 20:44:00,
2013-03-20 16:49:00,42.2,15.1,29.71,South,186,6.9,6.9,33,0.00,CLR,CLR,0.02,WeatherDisplay:10.36,2013-03-20 20:49:00,
2013-03-20 16:54:00,42.3,15.9,29.71,SSW,193,3.5,3.5,34,0.00,CLR,CLR,0.02,WeatherDisplay:10.36,2013-03-20 20:54:00,
2013-03-20 16:59:00,42.6,15.5,29.70,WSW,251,2.3,0.0,33,0.00,CLR,CLR,0.02,WeatherDisplay:10.36,2013-03-20 20:59:00,
2013-03-20 17:04:00,42.3,14.5,29.70,West,279,3.5,3.5,32,0.00,CLR,CLR,0.02,WeatherDisplay:10.36,2013-03-20 21:04:00,
2013-03-20 17:09:00,42.1,14.3,29.70,SSW,202,8.0,8.0,32,0.00,CLR,CLR,0.02,WeatherDisplay:10.36,2013-03-20 21:09:00,
2013-03-20 17:14:00,42.1,15.7,29.70,WSW,252,6.9,6.9,34,0.00,CLR,CLR,0.02,WeatherDisplay:10.36,2013-03-20 21:14:00,
2013-03-20 17:19:00,42.3,14.5,29.70,SW,227,3.5,0.0,32,0.00,CLR,CLR,0.02,WeatherDisplay:10.36,2013-03-20 21:19:00,
2013-03-20 17:25:00,42.3,14.5,29.70,SSW,201,3.5,3.5,32,0.00,CLR,CLR,0.02,WeatherDisplay:10.36,2013-03-20 21:25:00,
2013-03-20 17:30:00,42.3,14.5,29.69,WSW,257,5.8,5.8,32,0.00,CLR,CLR,0.02,WeatherDisplay:10.36,2013-03-20 21:30:00,
2013-03-20 17:35:00,42.5,14.7,29.70,West,270,5.8,5.8,32,0.00,CLR,CLR,0.02,WeatherDisplay:10.36,2013-03-20 21:35:00,
2013-03-20 17:40:00,42.3,15.2,29.70,WSW,249,0.0,3.0,33,0.00,CLR,CLR,0.02,WeatherDisplay:10.36,2013-03-20 21:40:00,
2013-03-20 17:45:00,42.2,15.1,29.71,WNW,283,1.2,1.2,33,0.00,CLR,CLR,0.02,WeatherDisplay:10.36,2013-03-20 21:45:00,
2013-03-20 17:50:00,42.2,14.4,29.70,WSW,256,3.5,3.5,32,0.00,CLR,CLR,0.02,WeatherDisplay:10.36,2013-03-20 21:50:00,
2013-03-20 17:55:00,42.1,14.3,29.71,WSW,238,3.5,3.5,32,0.00,CLR,CLR,0.02,WeatherDisplay:10.36,2013-03-20 21:55:00,
2013-03-20 18:01:00,41.9,14.1,29.70,West,277,2.3,2.3,32,0.00,CLR,CLR,0.02,WeatherDisplay:10.36,2013-03-20 22:01:00,
2013-03-20 18:07:00,41.8,14.8,29.70,West,261,0.0,0.0,33,0.00,CLR,CLR,0.02,WeatherDisplay:10.36,2013-03-20 22:07:00,
2013-03-20 18:12:00,41.8,15.4,29.71,West,261,0.0,0.0,34,0.00,CLR,CLR,0.02,WeatherDisplay:10.36,2013-03-20 22:12:00,
2013-03-20 18:16:00,41.8,15.4,29.70,WSW,255,3.5,3.5,34,0.00,CLR,CLR,0.02,WeatherDisplay:10.36,2013-03-20 22:16:00,
2013-03-20 18:21:00,41.9,15.5,29.70,WSW,254,2.3,2.3,34,0.00,CLR,CLR,0.02,WeatherDisplay:10.36,2013-03-20 22:21:00,
2013-03-20 18:27:00,41.9,16.2,29.71,WSW,254,1.2,1.2,35,0.00,CLR,CLR,0.02,WeatherDisplay:10.36,2013-03-20 22:27:00,
2013-03-20 18:32:00,42.1,15.7,29.71,SSW,211,1.2,1.2,34,0.00,CLR,CLR,0.02,WeatherDisplay:10.36,2013-03-20 22:32:00,
2013-03-20 18:37:00,42.1,16.4,29.71,SSE,159,0.0,0.0,35,0.00,CLR,CLR,0.02,WeatherDisplay:10.36,2013-03-20 22:37:00,
2013-03-20 18:42:00,41.9,16.9,29.71,SSW,198,1.2,1.2,36,0.00,CLR,CLR,0.02,WeatherDisplay:10.36,2013-03-20 22:42:00,
2013-03-20 18:47:00,41.8,15.4,29.71,West,262,2.3,2.3,34,0.00,CLR,CLR,0.02,WeatherDisplay:10.36,2013-03-20 22:47:00,
2013-03-20 18:52:00,41.6,15.9,29.71,WNW,297,2.3,2.3,35,0.00,CLR,CLR,0.02,WeatherDisplay:10.36,2013-03-20 22:52:00,
2013-03-20 18:57:00,41.3,16.3,29.71,West,259,3.5,3.5,36,0.00,CLR,CLR,0.02,WeatherDisplay:10.36,2013-03-20 22:57:00,
2013-03-20 19:02:00,41.2,14.9,29.71,WNW,288,3.5,3.5,34,0.00,CLR,CLR,0.02,WeatherDisplay:10.36,2013-03-20 23:02:00,
2013-03-20 19:07:00,41.2,16.2,29.71,NNW,330,1.2,0.0,36,0.00,CLR,CLR,0.02,WeatherDisplay:10.36,2013-03-20 23:07:00,
2013-03-20 19:12:00,40.9,17.2,29.71,North,6,3.5,3.5,38,0.00,CLR,CLR,0.02,WeatherDisplay:10.36,2013-03-20 23:12:00,
2013-03-20 19:18:00,40.6,16.9,29.72,WSW,253,1.0,1.0,38,0.00,CLR,CLR,0.02,WeatherDisplay:10.36,2013-03-20 23:18:00,
2013-03-20 19:23:00,40.5,16.9,29.71,WSW,253,1.0,0.0,38,0.00,CLR,CLR,0.02,WeatherDisplay:10.36,2013-03-20 23:23:00,
2013-03-20 19:28:00,40.2,17.2,29.72,WSW,253,0.0,0.0,39,0.00,CLR,CLR,0.02,WeatherDisplay:10.36,2013-03-20 23:28:00,
2013-03-20 19:33:00,39.9,16.9,29.72,WSW,253,1.2,0.0,39,0.00,CLR,CLR,0.02,WeatherDisplay:10.36,2013-03-20 23:33:00,
2013-03-20 19:39:00,39.8,17.4,29.72,WSW,253,0.0,0.0,40,0.00,CLR,CLR,0.02,WeatherDisplay:10.36,2013-03-20 23:39:00,
2013-03-20 19:44:00,39.5,17.7,29.72,WSW,253,0.0,0.0,41,0.00,CLR,CLR,0.02,WeatherDisplay:10.36,2013-03-20 23:44:00,
2013-03-20 19:49:00,39.3,17.0,29.72,SW,219,1.2,1.2,40,0.00,CLR,CLR,0.02,WeatherDisplay:10.36,2013-03-20 23:49:00,
2013-03-20 19:54:00,39.3,16.4,29.71,SW,226,0.0,0.0,39,0.00,CLR,CLR,0.02,WeatherDisplay:10.36,2013-03-20 23:54:00,
2013-03-20 19:59:00,39.3,17.0,29.71,SW,222,1.2,0.0,40,0.00,CLR,CLR,0.02,WeatherDisplay:10.36,2013-03-20 23:59:00,
2013-03-20 20:04:00,39.2,16.9,29.71,WSW,238,2.3,0.0,40,0.00,CLR,CLR,0.02,WeatherDisplay:10.36,2013-03-21 00:04:00,
2013-03-20 20:10:00,39.1,17.4,29.72,WSW,238,0.0,0.0,41,0.00,CLR,CLR,0.02,WeatherDisplay:10.36,2013-03-21 00:10:00,
2013-03-20 20:15:00,38.8,17.1,29.72,SSW,210,3.5,3.5,41,0.00,CLR,CLR,0.02,WeatherDisplay:10.36,2013-03-21 00:15:00,
2013-03-20 20:20:00,38.6,17.5,29.72,SW,230,2.0,5.0,42,0.00,CLR,CLR,0.02,WeatherDisplay:10.36,2013-03-21 00:20:00,
2013-03-20 20:25:00,38.6,17.5,29.72,SW,229,0.0,1.0,42,0.00,CLR,CLR,0.02,WeatherDisplay:10.36,2013-03-21 00:25:00,
2013-03-20 20:30:00,38.5,17.4,29.72,SW,228,0.0,2.0,42,0.00,CLR,CLR,0.02,WeatherDisplay:10.36,2013-03-21 00:30:00,
2013-03-20 20:35:00,38.2,18.2,29.72,SW,228,0.0,0.0,44,0.00,CLR,CLR,0.02,WeatherDisplay:10.36,2013-03-21 00:35:00,
2013-03-20 20:40:00,37.9,17.9,29.72,SW,228,0.0,0.0,44,0.00,CLR,CLR,0.02,WeatherDisplay:10.36,2013-03-21 00:40:00,
2013-03-20 20:46:00,37.6,17.6,29.72,SW,228,0.0,0.0,44,0.00,CLR,CLR,0.02,WeatherDisplay:10.36,2013-03-21 00:46:00,
2013-03-20 20:51:00,37.3,17.4,29.72,SW,228,0.0,0.0,44,0.00,CLR,CLR,0.02,WeatherDisplay:10.36,2013-03-21 00:51:00,
2013-03-20 20:56:00,37.0,17.6,29.73,SW,228,0.0,0.0,45,0.00,CLR,CLR,0.02,WeatherDisplay:10.36,2013-03-21 00:56:00,
2013-03-20 21:02:00,36.9,17.5,29.73,SW,228,0.0,0.0,45,0.00,CLR,CLR,0.02,WeatherDisplay:10.36,2013-03-21 01:02:00,
2013-03-20 21:07:00,36.6,17.7,29.73,SW,228,0.0,0.0,46,0.00,CLR,CLR,0.02,WeatherDisplay:10.36,2013-03-21 01:07:00,
2013-03-20 21:12:00,36.5,19.1,29.73,SW,228,0.0,0.0,49,0.00,CLR,CLR,0.02,WeatherDisplay:10.36,2013-03-21 01:12:00,
2013-03-20 21:17:00,36.3,18.9,29.73,SW,228,0.0,0.0,49,0.00,CLR,CLR,0.02,WeatherDisplay:10.36,2013-03-21 01:17:00,
2013-03-20 21:22:00,36.2,18.4,29.73,SW,228,0.0,0.0,48,0.00,CLR,CLR,0.02,WeatherDisplay:10.36,2013-03-21 01:22:00,
2013-03-20 21:27:00,36.0,19.1,29.73,SW,228,0.0,0.0,50,0.00,CLR,CLR,0.02,WeatherDisplay:10.36,2013-03-21 01:27:00,
2013-03-20 21:32:00,36.0,18.7,29.73,SW,228,0.0,0.0,49,0.00,CLR,CLR,0.02,WeatherDisplay:10.36,2013-03-21 01:32:00,
2013-03-20 21:37:00,36.0,19.1,29.73,SW,228,0.0,0.0,50,0.00,CLR,CLR,0.02,WeatherDisplay:10.36,2013-03-21 01:37:00,
2013-03-20 21:42:00,35.9,19.5,29.73,SW,228,0.0,0.0,51,0.00,CLR,CLR,0.02,WeatherDisplay:10.36,2013-03-21 01:42:00,
2013-03-20 21:47:00,35.9,19.0,29.73,SW,228,0.0,0.0,50,0.00,CLR,CLR,0.02,WeatherDisplay:10.36,2013-03-21 01:47:00,
2013-03-20 21:52:00,36.0,19.6,29.73,NW,325,1.2,0.0,51,0.00,CLR,CLR,0.02,WeatherDisplay:10.36,2013-03-21 01:52:00,
2013-03-20 21:57:00,36.0,19.6,29.74,NW,325,0.0,0.0,51,0.00,CLR,CLR,0.02,WeatherDisplay:10.36,2013-03-21 01:57:00,
2013-03-20 22:02:00,36.2,19.8,29.74,NW,325,0.0,0.0,51,0.00,CLR,CLR,0.02,WeatherDisplay:10.36,2013-03-21 02:02:00,
2013-03-20 22:08:00,36.2,20.2,29.74,NW,325,0.0,0.0,52,0.00,CLR,CLR,0.02,WeatherDisplay:10.36,2013-03-21 02:08:00,
2013-03-20 22:13:00,36.2,20.2,29.74,NW,325,2.3,2.3,52,0.00,CLR,CLR,0.02,WeatherDisplay:10.36,2013-03-21 02:13:00,
2013-03-20 22:18:00,36.0,20.1,29.74,NW,325,0.0,0.0,52,0.00,CLR,CLR,0.02,WeatherDisplay:10.36,2013-03-21 02:18:00,
2013-03-20 22:24:00,36.0,20.1,29.74,North,9,3.5,3.5,52,0.00,CLR,CLR,0.02,WeatherDisplay:10.36,2013-03-21 02:24:00,
2013-03-20 22:29:00,35.9,20.4,29.75,NW,319,1.2,1.2,53,0.00,CLR,CLR,0.02,WeatherDisplay:10.36,2013-03-21 02:29:00,
2013-03-20 22:34:00,35.9,20.9,29.75,NW,315,2.3,2.3,54,0.00,CLR,CLR,0.02,WeatherDisplay:10.36,2013-03-21 02:34:00,
2013-03-20 22:39:00,35.8,20.8,29.75,NW,315,0.0,0.0,54,0.00,CLR,CLR,0.02,WeatherDisplay:10.36,2013-03-21 02:39:00,
2013-03-20 22:44:00,35.8,20.8,29.75,NW,315,0.0,0.0,54,0.00,CLR,CLR,0.02,WeatherDisplay:10.36,2013-03-21 02:44:00,
2013-03-20 22:50:00,35.6,21.0,29.75,NW,315,0.0,0.0,55,0.00,CLR,CLR,0.02,WeatherDisplay:10.36,2013-03-21 02:50:00,
2013-03-20 22:55:00,35.6,21.0,29.75,NW,315,0.0,0.0,55,0.00,CLR,CLR,0.02,WeatherDisplay:10.36,2013-03-21 02:55:00,
2013-03-20 23:00:00,35.6,21.0,29.75,NW,315,0.0,0.0,55,0.00,CLR,CLR,0.02,WeatherDisplay:10.36,2013-03-21 03:00:00,
2013-03-20 23:05:00,35.6,21.0,29.75,NW,315,0.0,0.0,55,0.00,CLR,CLR,0.02,WeatherDisplay:10.36,2013-03-21 03:05:00,
2013-03-20 23:10:00,35.6,21.4,29.75,NW,315,0.0,0.0,56,0.00,CLR,CLR,0.02,WeatherDisplay:10.36,2013-03-21 03:10:00,
2013-03-20 23:15:00,35.6,21.4,29.75,NW,315,0.0,0.0,56,0.00,CLR,CLR,0.02,WeatherDisplay:10.36,2013-03-21 03:15:00,
2013-03-20 23:20:00,35.5,21.3,29.75,WSW,239,2.3,2.3,56,0.00,CLR,CLR,0.02,WeatherDisplay:10.36,2013-03-21 03:20:00,
2013-03-20 23:26:00,35.5,21.8,29.75,WSW,239,0.0,0.0,57,0.00,CLR,CLR,0.02,WeatherDisplay:10.36,2013-03-21 03:26:00,
2013-03-20 23:31:00,35.5,21.8,29.75,WSW,239,0.0,0.0,57,0.00,CLR,CLR,0.02,WeatherDisplay:10.36,2013-03-21 03:31:00,
2013-03-20 23:36:00,35.5,21.3,29.75,WSW,239,0.0,0.0,56,0.00,CLR,CLR,0.02,WeatherDisplay:10.36,2013-03-21 03:36:00,
2013-03-20 23:41:00,35.6,21.4,29.75,WSW,239,0.0,0.0,56,0.00,CLR,CLR,0.02,WeatherDisplay:10.36,2013-03-21 03:41:00,
2013-03-20 23:46:00,35.6,21.4,29.75,WSW,239,0.0,0.0,56,0.00,CLR,CLR,0.02,WeatherDisplay:10.36,2013-03-21 03:46:00,
2013-03-20 23:51:00,35.6,21.0,29.75,WSW,239,1.2,0.0,55,0.00,CLR,CLR,0.02,WeatherDisplay:10.36,2013-03-21 03:51:00,
2013-03-20 23:56:00,35.8,21.2,29.75,WSW,257,2.3,0.0,55,0.00,CLR,CLR,0.02,WeatherDisplay:10.36,2013-03-21 03:56:00,